Time;durP1;ratioP1;P1;durP2;ratioP2;P2;SDS_P1;SDS_P2;PMS_P1;PMS_P2;Temp;Humidity;BMP_temperature;BMP_pressure;BME280_temperature;BME280_humidity;BME280_pressure;Samples;Min_cycle;Max_cycle;Signal;HPM_P1;HPM_P2
2022/07/01 00:01:29;;;;;;;16.67;11.30;;;;;;;13.77;84.59;101406.91;5066145;28;20071;-71
2022/07/01 00:03:54;;;;;;;16.67;11.77;;;;;;;13.73;84.45;101428.13;5077420;28;20070;-71
2022/07/01 00:06:20;;;;;;;19.33;12.13;;;;;;;13.70;85.05;101422.88;5066777;28;20497;-71
2022/07/01 00:08:47;;;;;;;20.55;10.77;;;;;;;13.66;84.60;101418.66;5079199;28;20071;-71
2022/07/01 00:11:13;;;;;;;17.92;11.13;;;;;;;13.63;85.43;101420.75;5080110;28;20492;-71
2022/07/01 00:13:39;;;;;;;15.90;10.70;;;;;;;13.59;85.37;101420.09;5065748;28;20043;-71
2022/07/01 00:16:04;;;;;;;15.57;10.27;;;;;;;13.53;85.29;101415.13;5075557;28;20029;-71
2022/07/01 00:18:29;;;;;;;13.82;9.20;;;;;;;13.50;84.47;101407.13;5066046;28;20036;-71
2022/07/01 00:20:55;;;;;;;16.17;8.88;;;;;;;13.45;85.01;101421.16;5066576;28;20495;-71
2022/07/01 00:23:20;;;;;;;17.00;10.13;;;;;;;13.41;85.36;101416.03;5066240;28;20024;-71
2022/07/01 00:25:46;;;;;;;18.52;10.32;;;;;;;13.33;85.98;101407.53;5065901;28;20037;-71
2022/07/01 00:28:11;;;;;;;12.80;9.25;;;;;;;13.28;85.80;101410.59;5065135;28;20028;-72
2022/07/01 00:30:37;;;;;;;15.70;10.32;;;;;;;13.24;86.26;101409.09;5064087;28;20041;-71
2022/07/01 00:33:03;;;;;;;16.77;10.90;;;;;;;13.25;86.58;101414.44;5086117;28;20431;-72
2022/07/01 00:35:29;;;;;;;17.60;10.07;;;;;;;13.25;86.63;101408.13;5085170;28;20035;-72
2022/07/01 00:37:54;;;;;;;19.08;10.35;;;;;;;13.24;87.22;101396.31;5078134;28;20044;-70
2022/07/01 00:40:19;;;;;;;16.92;11.02;;;;;;;13.26;87.05;101393.47;5065503;28;20059;-72
2022/07/01 00:42:45;;;;;;;15.38;10.82;;;;;;;13.33;86.58;101391.13;5075624;28;20028;-72
2022/07/01 00:45:11;;;;;;;17.60;10.75;;;;;;;13.33;86.92;101389.25;5072370;28;20077;-72
2022/07/01 00:47:39;;;;;;;19.38;10.18;;;;;;;13.38;86.32;101391.66;5065394;28;20101;-71
2022/07/01 00:50:09;;;;;;;18.15;10.93;;;;;;;13.40;86.74;101393.28;5066075;28;20560;-71
2022/07/01 00:52:35;;;;;;;15.90;10.65;;;;;;;13.44;86.43;101385.75;5066393;28;20040;-72
2022/07/01 00:55:05;;;;;;;20.70;10.52;;;;;;;13.47;86.30;101397.28;5066378;28;20106;-72
2022/07/01 00:57:33;;;;;;;17.80;10.88;;;;;;;13.51;85.77;101398.81;5065657;28;20159;-71
2022/07/01 00:59:58;;;;;;;17.20;10.23;;;;;;;13.51;85.96;101397.94;5065149;28;20147;-72
2022/07/01 01:02:24;;;;;;;16.67;11.23;;;;;;;13.49;86.46;101408.13;5070422;28;20036;-72
2022/07/01 01:04:50;;;;;;;20.02;11.43;;;;;;;13.51;86.52;101406.13;5086178;28;20052;-71
2022/07/01 01:07:15;;;;;;;20.88;11.40;;;;;;;13.55;86.80;101401.31;5086382;28;20079;-72
2022/07/01 01:09:41;;;;;;;20.30;11.45;;;;;;;13.56;86.76;101412.13;5079788;28;20119;-73
2022/07/01 01:12:07;;;;;;;18.70;11.15;;;;;;;13.56;86.47;101416.72;5071159;28;20082;-71
2022/07/01 01:14:46;;;;;;;20.55;12.10;;;;;;;13.50;87.21;101409.88;5078363;28;20036;-71
2022/07/01 01:17:13;;;;;;;19.92;11.10;;;;;;;13.51;87.33;101428.00;5065324;28;20068;-72
2022/07/01 01:19:38;;;;;;;21.83;11.40;;;;;;;13.52;87.27;101438.84;5064474;28;20081;-72
2022/07/01 01:22:04;;;;;;;19.10;11.73;;;;;;;13.54;87.22;101433.25;5064418;28;20040;-71
2022/07/01 01:24:29;;;;;;;20.73;11.60;;;;;;;13.52;87.03;101433.38;5066284;28;20124;-73
2022/07/01 01:26:56;;;;;;;21.20;12.18;;;;;;;13.50;87.51;101445.41;5064784;28;20028;-73
2022/07/01 01:29:21;;;;;;;19.35;11.30;;;;;;;13.47;87.96;101445.63;5065182;28;20051;-72
2022/07/01 01:31:46;;;;;;;19.45;12.35;;;;;;;13.48;87.57;101450.13;5065116;28;20024;-72
2022/07/01 01:34:12;;;;;;;18.88;12.00;;;;;;;13.47;87.45;101457.44;5064707;28;20059;-71
2022/07/01 01:36:37;;;;;;;20.50;11.52;;;;;;;13.49;87.13;101451.88;5066023;28;20024;-72
2022/07/01 01:39:14;;;;;;;19.17;12.63;;;;;;;13.49;87.20;101450.00;5081791;28;20024;-71
2022/07/01 01:41:39;;;;;;;21.95;12.95;;;;;;;13.48;88.09;101436.47;5064631;28;20060;-73
2022/07/01 01:44:05;;;;;;;18.52;11.48;;;;;;;13.49;87.83;101450.00;5067597;28;20076;-72
2022/07/01 01:46:30;;;;;;;19.50;11.35;;;;;;;13.48;88.00;101445.53;5069045;28;20049;-72
2022/07/01 01:48:57;;;;;;;23.92;14.32;;;;;;;13.45;87.95;101440.28;5069170;28;20104;-73
2022/07/01 01:51:23;;;;;;;23.33;12.88;;;;;;;13.45;87.90;101439.41;5069004;28;20669;-72
2022/07/01 01:53:48;;;;;;;21.63;11.77;;;;;;;13.45;87.41;101433.94;5069151;28;20111;-73
2022/07/01 01:56:14;;;;;;;18.30;11.00;;;;;;;13.50;87.35;101435.34;5083672;28;20113;-73
2022/07/01 01:58:42;;;;;;;19.98;12.35;;;;;;;13.52;87.60;101437.94;5068177;28;20033;-73
2022/07/01 02:01:12;;;;;;;23.25;12.30;;;;;;;13.52;88.15;101448.88;5070413;28;20050;-74
2022/07/01 02:03:39;;;;;;;21.77;12.30;;;;;;;13.50;87.46;101443.53;5084392;28;20047;-70
2022/07/01 02:06:06;;;;;;;25.00;13.55;;;;;;;13.50;87.61;101438.06;5070976;28;20075;-73
2022/07/01 02:08:31;;;;;;;21.65;12.93;;;;;;;13.51;87.87;101450.75;5089588;28;20547;-73
2022/07/01 02:10:57;;;;;;;26.30;13.70;;;;;;;13.51;87.50;101449.88;5073754;28;20054;-71
2022/07/01 02:13:23;;;;;;;23.83;13.27;;;;;;;13.50;87.51;101459.06;5067566;28;20044;-72
2022/07/01 02:15:49;;;;;;;26.48;12.93;;;;;;;13.48;87.24;101461.94;5067258;28;20546;-72
2022/07/01 02:18:15;;;;;;;22.42;14.93;;;;;;;13.50;87.37;101465.41;5068949;28;20049;-73
2022/07/01 02:20:41;;;;;;;25.35;14.52;;;;;;;13.50;87.58;101472.75;5067978;28;20143;-72
2022/07/01 02:23:08;;;;;;;20.92;13.52;;;;;;;13.51;87.17;101472.63;5068708;28;20040;-72
2022/07/01 02:25:33;;;;;;;28.30;13.93;;;;;;;13.50;87.90;101484.53;5068925;28;20115;-69
2022/07/01 02:27:59;;;;;;;27.60;15.35;;;;;;;13.49;88.11;101496.47;5066015;28;20107;-73
2022/07/01 02:30:25;;;;;;;30.08;13.80;;;;;;;13.52;88.15;101493.53;5067598;28;20063;-71
2022/07/01 02:32:50;;;;;;;23.52;13.82;;;;;;;13.54;88.00;101496.13;5077080;28;20024;-73
2022/07/01 02:35:16;;;;;;;22.88;13.48;;;;;;;13.55;88.49;101467.78;5087129;28;20096;-72
2022/07/01 02:37:41;;;;;;;26.73;14.38;;;;;;;13.58;87.33;101453.03;5082429;28;20025;-72
2022/07/01 02:40:08;;;;;;;23.92;15.13;;;;;;;13.57;87.93;101441.22;5068376;28;20476;-72
2022/07/01 02:42:37;;;;;;;26.70;15.25;;;;;;;13.51;87.93;101452.63;5081685;28;20051;-73
2022/07/01 02:45:04;;;;;;;26.58;14.45;;;;;;;13.49;87.56;101458.19;5078140;28;20421;-73
2022/07/01 02:47:37;;;;;;;27.17;14.70;;;;;;;13.44;88.37;101452.22;5067638;28;20166;-71
2022/07/01 02:50:04;;;;;;;25.67;13.98;;;;;;;13.46;88.00;101461.16;5068689;28;20028;-72
2022/07/01 02:52:30;;;;;;;23.35;13.93;;;;;;;13.45;88.54;101464.88;5067204;28;20456;-73
2022/07/01 02:54:55;;;;;;;30.33;16.55;;;;;;;13.43;87.96;101472.34;5067532;28;20028;-72
2022/07/01 02:57:21;;;;;;;25.27;15.35;;;;;;;13.44;88.60;101473.22;5069900;28;20021;-72
2022/07/01 02:59:46;;;;;;;30.00;16.92;;;;;;;13.44;88.25;101478.69;5067070;28;20162;-72
2022/07/01 03:02:11;;;;;;;28.58;15.18;;;;;;;13.44;88.30;101484.13;5070907;28;20470;-72
2022/07/01 03:04:37;;;;;;;28.35;16.52;;;;;;;13.43;88.37;101469.59;5087836;28;20384;-73
2022/07/01 03:07:02;;;;;;;28.20;16.20;;;;;;;13.45;88.40;101474.94;5085721;28;20430;-73
2022/07/01 03:09:28;;;;;;;28.75;17.45;;;;;;;13.42;88.79;101476.03;5088316;28;20135;-73
2022/07/01 03:11:53;;;;;;;33.05;17.25;;;;;;;13.39;89.11;101476.28;5079982;28;20036;-73
2022/07/01 03:14:19;;;;;;;33.38;17.52;;;;;;;13.37;88.78;101475.50;5066415;28;20032;-72
2022/07/01 03:16:46;;;;;;;33.17;18.27;;;;;;;13.38;88.94;101490.94;5065488;28;20036;-73
2022/07/01 03:19:12;;;;;;;30.58;18.05;;;;;;;13.39;89.38;101481.75;5067496;28;20495;-72
2022/07/01 03:21:37;;;;;;;31.67;17.42;;;;;;;13.38;88.27;101480.00;5083670;28;20037;-72
2022/07/01 03:24:03;;;;;;;31.90;17.77;;;;;;;13.36;88.65;101472.91;5086971;28;20020;-72
2022/07/01 03:26:28;;;;;;;34.90;18.10;;;;;;;13.34;88.43;101472.16;5083259;28;20086;-69
2022/07/01 03:28:54;;;;;;;34.35;18.27;;;;;;;13.34;88.03;101483.94;5066501;28;20052;-72
2022/07/01 03:31:19;;;;;;;36.13;17.90;;;;;;;13.32;88.04;101485.03;5065706;28;20044;-72
2022/07/01 03:33:45;;;;;;;33.40;17.02;;;;;;;13.31;88.43;101486.03;5083662;28;20509;-72
2022/07/01 03:36:10;;;;;;;30.73;17.13;;;;;;;13.28;88.21;101473.44;5087639;28;20032;-72
2022/07/01 03:38:35;;;;;;;36.58;18.95;;;;;;;13.26;88.59;101500.03;5087507;28;20047;-72
2022/07/01 03:41:01;;;;;;;37.58;17.45;;;;;;;13.25;88.10;101514.69;5086216;28;20174;-71
2022/07/01 03:43:26;;;;;;;35.55;18.83;;;;;;;13.24;88.08;101522.03;5066859;28;20468;-72
2022/07/01 03:45:51;;;;;;;33.85;19.10;;;;;;;13.20;88.93;101516.84;5068469;28;20487;-72
2022/07/01 03:48:17;;;;;;;38.05;19.33;;;;;;;13.15;89.20;101516.28;5067015;28;20447;-72
2022/07/01 03:50:42;;;;;;;31.75;18.88;;;;;;;13.16;89.08;101526.25;5065039;28;20115;-72
2022/07/01 03:55:51;;;;;;;38.78;19.67;;;;;;;13.15;89.33;101535.41;5065307;28;20072;-72
2022/07/01 03:58:17;;;;;;;35.42;19.25;;;;;;;13.18;88.57;101538.81;5065609;28;20063;-71
2022/07/01 04:00:42;;;;;;;33.22;17.92;;;;;;;13.18;88.96;101544.25;5065962;28;20036;-72
2022/07/01 04:03:07;;;;;;;34.72;18.35;;;;;;;13.20;89.08;101546.91;5078186;28;20043;-72
2022/07/01 04:05:34;;;;;;;32.90;19.20;;;;;;;13.22;88.66;101553.16;5086459;28;20040;-72
2022/07/01 04:08:00;;;;;;;30.92;19.35;;;;;;;13.24;88.57;101557.53;5073771;28;20131;-71
2022/07/01 04:10:26;;;;;;;34.28;19.42;;;;;;;13.25;88.91;101542.88;5065632;28;20133;-72
2022/07/01 04:12:51;;;;;;;31.60;18.13;;;;;;;13.28;88.07;101549.97;5063804;28;20082;-72
2022/07/01 04:15:17;;;;;;;35.22;18.98;;;;;;;13.31;88.34;101549.75;5066164;28;20523;-72
2022/07/01 04:17:43;;;;;;;32.88;19.30;;;;;;;13.31;88.71;101537.94;5065594;28;20812;-72
2022/07/01 04:20:08;;;;;;;35.47;19.90;;;;;;;13.28;88.88;101542.63;5066355;28;20040;-72
2022/07/01 04:22:35;;;;;;;35.78;20.88;;;;;;;13.24;89.16;101545.72;5065218;28;20436;-71
2022/07/01 04:25:03;;;;;;;36.40;20.08;;;;;;;13.22;88.80;101545.81;5067316;28;20476;-71
2022/07/01 04:27:30;;;;;;;40.78;20.33;;;;;;;13.21;88.89;101543.19;5065372;28;20036;-72
2022/07/01 04:29:55;;;;;;;42.58;22.05;;;;;;;13.15;88.98;101539.03;5065630;28;20028;-71
2022/07/01 04:32:21;;;;;;;43.17;22.70;;;;;;;13.16;88.82;101539.91;5078562;28;20038;-72
2022/07/01 04:34:46;;;;;;;42.25;21.33;;;;;;;13.16;88.45;101548.97;5085216;28;20028;-72
2022/07/01 04:37:12;;;;;;;40.75;21.05;;;;;;;13.19;87.88;101548.75;5086648;28;20336;-72
2022/07/01 04:39:37;;;;;;;35.08;20.30;;;;;;;13.19;87.97;101547.88;5080495;28;20037;-72
2022/07/01 04:42:03;;;;;;;36.70;20.38;;;;;;;13.25;87.89;101550.22;5065610;28;20855;-73
2022/07/01 04:44:31;;;;;;;34.90;19.90;;;;;;;13.28;87.78;101555.44;5065090;28;20051;-71
2022/07/01 04:46:57;;;;;;;37.20;19.77;;;;;;;13.31;87.23;101565.28;5065392;28;20110;-72
2022/07/01 04:49:23;;;;;;;41.35;20.33;;;;;;;13.37;86.95;101562.97;5066363;28;20502;-72
2022/07/01 04:51:48;;;;;;;40.25;20.00;;;;;;;13.40;87.84;101570.09;5065769;28;20115;-72
2022/07/01 04:54:13;;;;;;;31.73;17.88;;;;;;;13.40;87.45;101565.47;5081892;28;20133;-72
2022/07/01 04:56:39;;;;;;;30.63;17.35;;;;;;;13.45;87.03;101568.75;5064823;28;20078;-72
2022/07/01 04:59:05;;;;;;;28.00;15.98;;;;;;;13.45;87.22;101567.88;5080412;28;20044;-72
2022/07/01 05:01:31;;;;;;;28.98;16.00;;;;;;;13.52;86.88;101558.22;5064027;28;20028;-71
2022/07/01 05:03:56;;;;;;;25.55;14.73;;;;;;;13.54;86.68;101559.00;5082749;28;20039;-72
2022/07/01 05:06:22;;;;;;;26.88;14.52;;;;;;;13.51;86.55;101557.38;5085041;28;20269;-72
2022/07/01 05:08:47;;;;;;;24.48;13.43;;;;;;;13.51;86.58;101568.28;5086381;28;20115;-72
2022/07/01 05:11:13;;;;;;;22.55;13.25;;;;;;;13.58;86.70;101567.88;5077734;28;20012;-71
2022/07/01 05:13:38;;;;;;;23.88;13.43;;;;;;;13.61;86.69;101573.09;5065010;28;20131;-72
2022/07/01 05:16:04;;;;;;;22.80;13.38;;;;;;;13.62;86.94;101573.00;5064765;28;20086;-71
2022/07/01 05:23:59;;;;;;;21.23;11.10;;;;;;;13.92;85.31;101567.09;5070220;28;20040;-72
2022/07/01 05:26:25;;;;;;;21.17;11.95;;;;;;;13.92;86.08;101556.16;5068385;28;20144;-72
2022/07/01 05:28:54;;;;;;;21.48;11.38;;;;;;;13.96;86.03;101554.94;5069217;28;20487;-72
2022/07/01 05:31:20;;;;;;;19.00;10.80;;;;;;;14.01;84.55;101563.66;5068368;28;20067;-72
2022/07/01 05:33:46;;;;;;;23.02;11.80;;;;;;;14.04;85.58;101571.66;5086170;28;20467;-72
2022/07/01 05:36:13;;;;;;;20.98;11.77;;;;;;;13.96;85.80;101563.16;5088669;28;20036;-72
2022/07/01 05:38:38;;;;;;;18.73;10.73;;;;;;;13.90;85.98;101560.00;5088194;28;20137;-73
2022/07/01 05:41:04;;;;;;;21.77;11.98;;;;;;;13.87;85.71;101552.03;5075846;28;20187;-70
2022/07/01 05:43:30;;;;;;;20.10;11.50;;;;;;;13.87;86.23;101557.50;5085459;28;20497;-73
2022/07/01 05:45:56;;;;;;;19.08;10.73;;;;;;;13.87;85.79;101558.38;5071611;28;20054;-71
2022/07/01 05:48:21;;;;;;;18.83;11.02;;;;;;;13.90;85.33;101557.28;5069202;28;20046;-72
2022/07/01 05:50:47;;;;;;;24.83;11.82;;;;;;;13.86;85.65;101558.50;5069143;28;20024;-72
2022/07/01 05:53:12;;;;;;;19.17;11.02;;;;;;;13.80;86.17;101559.78;5068904;28;20040;-72
2022/07/01 05:55:38;;;;;;;18.40;11.68;;;;;;;13.83;85.46;101562.31;5068865;28;20071;-71
2022/07/01 05:58:03;;;;;;;23.95;12.63;;;;;;;13.88;85.58;101573.78;5068156;28;20025;-70
2022/07/01 06:00:29;;;;;;;20.75;11.20;;;;;;;13.93;85.37;101568.84;5067706;28;20029;-69
2022/07/01 06:02:54;;;;;;;21.42;11.02;;;;;;;14.08;84.74;101574.13;5085321;28;20048;-72
2022/07/01 06:05:19;;;;;;;22.77;12.52;;;;;;;14.17;85.28;101562.50;5089219;28;20562;-73
2022/07/01 06:07:45;;;;;;;19.27;10.40;;;;;;;14.27;86.03;101564.44;5083050;28;20036;-72
2022/07/01 06:10:11;;;;;;;21.42;11.73;;;;;;;14.37;85.15;101567.34;5068828;28;20020;-72
2022/07/01 06:12:39;;;;;;;23.60;11.90;;;;;;;14.40;84.29;101566.22;5077846;28;20122;-73
2022/07/01 06:15:07;;;;;;;18.45;11.73;;;;;;;14.42;84.48;101577.94;5078882;28;20054;-73
2022/07/01 06:17:34;;;;;;;18.23;11.98;;;;;;;14.46;84.04;101565.75;5066789;28;20035;-72
2022/07/01 06:19:59;;;;;;;19.45;11.07;;;;;;;14.54;84.08;101571.53;5069041;28;20059;-73
2022/07/01 06:22:24;;;;;;;20.25;11.77;;;;;;;14.49;83.69;101566.41;5067426;28;20044;-73
2022/07/01 06:24:50;;;;;;;18.70;11.52;;;;;;;14.46;83.69;101572.09;5067166;28;20040;-73
2022/07/01 06:27:15;;;;;;;19.00;11.73;;;;;;;14.51;82.92;101567.19;5066407;28;20044;-73
2022/07/01 06:29:40;;;;;;;21.42;12.18;;;;;;;14.50;83.62;101561.78;5066623;28;20567;-70
2022/07/01 06:32:07;;;;;;;19.40;11.88;;;;;;;14.45;82.92;101564.84;5070589;28;20435;-71
2022/07/01 06:34:33;;;;;;;19.38;11.07;;;;;;;14.40;82.97;101571.69;5089098;28;20040;-73
2022/07/01 06:37:00;;;;;;;16.15;9.98;;;;;;;14.39;83.67;101562.59;5088993;28;20040;-72
2022/07/01 06:39:28;;;;;;;16.45;11.10;;;;;;;14.43;83.54;101564.13;5069122;28;20055;-72
2022/07/01 06:41:55;;;;;;;20.42;12.68;;;;;;;14.43;84.07;101563.25;5066552;28;20028;-73
2022/07/01 06:44:20;;;;;;;16.77;11.35;;;;;;;14.40;83.47;101563.47;5067332;28;20044;-73
2022/07/01 06:46:46;;;;;;;19.52;11.55;;;;;;;14.41;83.79;101562.47;5067574;28;20040;-72
2022/07/01 06:49:11;;;;;;;17.98;11.00;;;;;;;14.37;83.46;101563.72;5068008;28;20071;-72
2022/07/01 06:51:36;;;;;;;20.50;11.20;;;;;;;14.37;83.12;101559.13;5065965;28;20083;-72
2022/07/01 06:54:02;;;;;;;19.50;11.27;;;;;;;14.34;83.64;101551.13;5068375;28;20094;-72
2022/07/01 06:56:28;;;;;;;18.15;10.98;;;;;;;14.29;82.64;101556.09;5066001;28;20028;-72
2022/07/01 06:58:53;;;;;;;17.13;11.15;;;;;;;14.27;82.24;101566.31;5065720;28;20082;-73
2022/07/01 07:01:18;;;;;;;23.13;10.32;;;;;;;14.25;82.72;101563.66;5066501;28;20059;-73
2022/07/01 07:03:44;;;;;;;14.75;9.13;;;;;;;14.24;82.38;101569.25;5086516;28;20028;-72
2022/07/01 07:06:09;;;;;;;14.95;9.20;;;;;;;14.24;83.33;101566.53;5086933;28;20079;-73
2022/07/01 07:08:35;;;;;;;16.15;9.15;;;;;;;14.28;82.97;101568.91;5087810;28;20544;-72
2022/07/01 07:11:00;;;;;;;13.55;8.45;;;;;;;14.35;83.58;101574.78;5068673;28;20086;-72
2022/07/01 07:13:26;;;;;;;19.58;10.38;;;;;;;14.45;83.12;101584.03;5066094;28;20120;-72
2022/07/01 07:15:51;;;;;;;13.95;8.20;;;;;;;14.56;82.64;101602.41;5075741;28;20128;-73
2022/07/01 07:18:17;;;;;;;15.45;8.93;;;;;;;14.61;83.74;101605.69;5066187;28;20033;-73
2022/07/01 07:20:42;;;;;;;18.20;8.50;;;;;;;14.64;82.52;101608.19;5067077;28;20097;-73
2022/07/01 07:23:08;;;;;;;18.85;8.65;;;;;;;14.64;80.69;101597.22;5066873;28;20040;-73
2022/07/01 07:25:33;;;;;;;13.98;7.88;;;;;;;14.72;81.31;101593.88;5083218;28;20448;-69
2022/07/01 07:27:59;;;;;;;12.90;7.90;;;;;;;14.80;79.95;101592.28;5066062;28;20064;-72
2022/07/01 07:30:24;;;;;;;15.13;6.97;;;;;;;14.88;78.44;101585.34;5064291;28;20119;-73
2022/07/01 07:32:49;;;;;;;11.95;6.65;;;;;;;14.94;79.43;101591.19;5074592;28;20071;-72
2022/07/01 07:35:15;;;;;;;12.93;6.18;;;;;;;15.01;78.99;101591.56;5087141;28;20036;-72
2022/07/01 07:37:41;;;;;;;10.88;5.78;;;;;;;15.06;80.55;101592.09;5087523;28;20047;-73
2022/07/01 07:40:09;;;;;;;8.77;5.88;;;;;;;15.05;77.17;101591.22;5087049;28;20526;-73
2022/07/01 07:42:36;;;;;;;12.07;5.63;;;;;;;15.13;78.54;101607.06;5078882;28;20466;-71
2022/07/01 07:45:02;;;;;;;9.10;5.03;;;;;;;15.16;76.88;101611.44;5066538;28;20025;-72
2022/07/01 07:47:27;;;;;;;7.72;4.95;;;;;;;15.22;76.76;101613.69;5065493;28;20498;-72
2022/07/01 07:49:52;;;;;;;13.75;5.13;;;;;;;15.24;76.93;101611.69;5065406;28;20988;-72
2022/07/01 07:52:18;;;;;;;9.60;4.68;;;;;;;15.28;75.74;101605.81;5066510;28;20409;-73
2022/07/01 07:54:43;;;;;;;11.27;5.15;;;;;;;15.41;76.46;101613.06;5066581;28;20440;-72
2022/07/01 07:57:08;;;;;;;8.00;3.63;;;;;;;15.51;77.14;101612.19;5063666;28;20037;-72
2022/07/01 07:59:35;;;;;;;6.78;3.90;;;;;;;15.57;76.07;101624.53;5064071;28;20028;-72
2022/07/01 08:02:00;;;;;;;8.73;3.97;;;;;;;15.63;75.11;101621.31;5066339;28;20476;-72
2022/07/01 08:04:26;;;;;;;9.93;3.45;;;;;;;15.74;75.45;101623.22;5085038;28;20166;-73
2022/07/01 08:06:51;;;;;;;7.10;3.72;;;;;;;15.84;75.29;101620.59;5085392;28;20039;-73
2022/07/01 08:09:17;;;;;;;5.47;3.13;;;;;;;16.00;71.16;101623.81;5067722;28;20035;-72
2022/07/01 08:11:43;;;;;;;5.65;3.00;;;;;;;16.31;71.25;101628.47;5065673;28;20044;-72
2022/07/01 08:14:09;;;;;;;4.50;2.00;;;;;;;16.66;69.76;101634.75;5065312;28;20036;-70
2022/07/01 08:16:35;;;;;;;5.40;2.60;;;;;;;16.96;68.61;101632.09;5066006;28;20559;-72
2022/07/01 08:19:01;;;;;;;7.03;2.85;;;;;;;17.26;72.04;101638.69;5066841;28;20028;-71
2022/07/01 08:21:27;;;;;;;4.55;2.50;;;;;;;17.82;66.77;101636.41;5066236;28;20063;-73
2022/07/01 08:23:52;;;;;;;8.07;1.98;;;;;;;18.37;68.20;101627.69;5066002;28;20475;-72
2022/07/01 08:26:17;;;;;;;4.97;1.88;;;;;;;18.59;64.02;101635.69;5080861;28;20054;-71
2022/07/01 08:28:43;;;;;;;7.45;1.75;;;;;;;18.63;62.51;101646.44;5065342;28;20048;-72
2022/07/01 08:31:09;;;;;;;5.10;1.70;;;;;;;18.59;63.32;101651.38;5064685;28;20094;-71
2022/07/01 08:33:37;;;;;;;6.75;2.30;;;;;;;18.71;62.82;101650.28;5085247;28;20491;-70
2022/07/01 08:36:03;;;;;;;3.40;2.05;;;;;;;18.91;62.22;101655.78;5085573;28;20035;-72
2022/07/01 08:38:28;;;;;;;5.47;2.15;;;;;;;19.19;61.72;101649.38;5086839;28;20391;-71
2022/07/01 08:40:54;;;;;;;4.32;2.17;;;;;;;19.48;60.94;101653.94;5069511;28;20036;-71
2022/07/01 08:43:20;;;;;;;5.45;2.03;;;;;;;19.78;60.67;101652.88;5064662;28;20125;-71
2022/07/01 08:45:45;;;;;;;5.43;2.25;;;;;;;20.38;62.75;101662.47;5065465;28;20106;-72
2022/07/01 08:48:10;;;;;;;4.93;1.70;;;;;;;20.80;58.01;101649.97;5065581;28;20402;-73
2022/07/01 08:50:38;;;;;;;1.63;1.20;;;;;;;21.22;60.57;101666.78;5065845;28;20462;-72
2022/07/01 08:53:05;;;;;;;3.95;1.55;;;;;;;21.36;57.52;101674.53;5084854;28;20032;-71
2022/07/01 08:55:31;;;;;;;2.22;1.60;;;;;;;21.58;57.00;101673.09;5070018;28;20055;-70
2022/07/01 08:57:58;;;;;;;5.25;1.73;;;;;;;21.42;53.20;101678.53;5067033;28;20040;-71
2022/07/01 09:00:33;;;;;;;4.45;1.73;;;;;;;21.56;54.83;101680.72;5069007;28;20654;-71
2022/07/01 09:03:00;;;;;;;2.42;1.63;;;;;;;21.50;54.37;101686.03;5066683;28;20118;-72
2022/07/01 09:05:27;;;;;;;2.33;1.50;;;;;;;21.68;53.99;101691.50;5067898;28;20060;-71
2022/07/01 09:08:01;;;;;;;3.53;1.65;;;;;;;21.73;53.82;101680.81;5069248;28;20036;-72
2022/07/01 09:10:27;;;;;;;4.75;1.70;;;;;;;21.82;53.41;101668.75;5069843;28;20608;-72
2022/07/01 09:12:52;;;;;;;5.70;1.77;;;;;;;21.78;51.75;101683.97;5068345;28;20136;-71
2022/07/01 09:15:30;;;;;;;2.85;1.45;;;;;;;22.09;50.56;101679.63;5068330;28;20483;-71
2022/07/01 09:18:02;;;;;;;6.70;1.60;;;;;;;21.97;50.72;101661.56;5068585;28;20068;-72
2022/07/01 09:20:31;;;;;;;3.30;1.20;;;;;;;21.88;50.68;101673.66;5069212;28;20067;-72
2022/07/01 09:23:10;;;;;;;6.20;1.60;;;;;;;22.21;52.52;101665.53;5069249;28;20398;-71
2022/07/01 09:25:44;;;;;;;2.45;1.50;;;;;;;22.38;50.86;101676.50;5067181;28;20522;-71
2022/07/01 09:28:21;;;;;;;4.35;1.85;;;;;;;22.63;50.27;101673.78;5067712;28;20347;-72
2022/07/01 09:30:51;;;;;;;2.90;1.27;;;;;;;22.94;51.64;101675.94;5068600;28;20086;-71
2022/07/01 09:33:22;;;;;;;5.72;2.00;;;;;;;22.92;50.24;101682.53;5101156;28;20092;-72
2022/07/01 09:35:49;;;;;;;4.22;1.38;;;;;;;22.86;48.05;101671.25;5067695;28;20029;-72
2022/07/01 09:38:16;;;;;;;4.18;1.45;;;;;;;23.18;49.66;101675.97;5069163;28;20542;-72
2022/07/01 09:40:55;;;;;;;2.75;1.40;;;;;;;23.31;49.23;101676.31;5068221;28;20112;-71
2022/07/01 09:43:33;;;;;;;2.42;1.40;;;;;;;23.43;48.54;101672.13;5067669;28;20051;-71
2022/07/01 09:46:03;;;;;;;3.90;1.52;;;;;;;23.44;47.92;101686.88;5067784;28;20040;-71
2022/07/01 09:48:34;;;;;;;2.67;1.25;;;;;;;23.76;50.31;101680.44;5069321;28;20044;-71
2022/07/01 09:51:08;;;;;;;3.17;1.30;;;;;;;24.00;46.77;101679.50;5084502;28;20367;-72
2022/07/01 09:53:34;;;;;;;6.38;1.33;;;;;;;24.07;44.47;101679.69;5069005;28;20045;-69
2022/07/01 09:56:00;;;;;;;6.43;1.20;;;;;;;23.97;45.56;101690.13;5068247;28;20086;-71
2022/07/01 09:58:25;;;;;;;5.20;1.30;;;;;;;23.92;45.91;101690.66;5067480;28;20040;-72
2022/07/01 10:00:54;;;;;;;3.35;1.15;;;;;;;23.92;46.99;101685.97;5067714;28;20511;-71
2022/07/01 10:03:25;;;;;;;3.75;1.15;;;;;;;23.87;46.03;101682.84;5080516;28;20082;-69
2022/07/01 10:06:06;;;;;;;3.88;1.30;;;;;;;24.17;47.62;101683.09;5087335;28;20048;-71
2022/07/01 10:09:18;;;;;;;1.70;0.93;;;;;;;24.39;46.64;101684.28;5068433;28;20055;-72
2022/07/01 10:12:27;;;;;;;4.03;1.02;;;;;;;24.34;47.24;101695.91;5066416;28;20115;-70
2022/07/01 10:14:53;;;;;;;2.65;1.00;;;;;;;24.42;45.66;101698.66;5085480;28;20036;-71
2022/07/01 10:17:29;;;;;;;4.25;1.00;;;;;;;24.27;47.40;101707.91;5073995;28;20441;-70
2022/07/01 10:20:05;;;;;;;3.38;1.23;;;;;;;24.25;43.49;101719.25;5068219;28;20052;-70
2022/07/01 10:22:30;;;;;;;2.38;1.33;;;;;;;24.14;42.60;101703.78;5073795;28;20177;-71
2022/07/01 10:25:16;;;;;;;4.78;1.17;;;;;;;24.28;44.03;101704.09;5068114;28;20104;-70
2022/07/01 10:27:41;;;;;;;5.82;1.63;;;;;;;24.56;44.42;101722.06;5067033;28;20494;-71
2022/07/01 10:30:12;;;;;;;2.60;1.00;;;;;;;24.47;43.07;101714.81;5067635;28;20107;-71
2022/07/01 10:32:48;;;;;;;4.37;1.23;;;;;;;24.11;43.89;101734.75;5074425;28;20039;-71
2022/07/01 10:35:14;;;;;;;3.85;0.90;;;;;;;23.63;43.11;101727.31;5088152;28;20039;-71
2022/07/01 10:37:59;;;;;;;5.45;1.30;;;;;;;23.39;45.10;101737.41;5085422;28;20032;-70
2022/07/01 10:40:45;;;;;;;6.15;1.30;;;;;;;23.53;46.31;101734.97;5068239;28;20495;-70
2022/07/01 10:43:10;;;;;;;5.22;1.20;;;;;;;23.26;43.34;101727.84;5048409;28;20086;-71
2022/07/01 10:45:46;;;;;;;4.50;1.33;;;;;;;22.86;46.41;101730.38;5067755;28;20036;-70
2022/07/01 10:48:23;;;;;;;3.42;1.00;;;;;;;22.66;46.42;101729.81;5084810;28;20118;-70
2022/07/01 10:50:50;;;;;;;5.72;1.20;;;;;;;22.44;46.71;101727.66;5088167;28;20134;-70
2022/07/01 10:53:16;;;;;;;2.78;1.02;;;;;;;22.36;47.72;101724.84;5086766;28;20129;-71
2022/07/01 10:55:49;;;;;;;4.20;1.10;;;;;;;22.49;48.09;101722.47;5084625;28;20055;-71
2022/07/01 10:58:18;;;;;;;3.65;1.10;;;;;;;22.46;46.44;101724.69;5070736;28;20763;-71
2022/07/01 11:00:50;;;;;;;8.00;1.05;;;;;;;22.64;47.69;101725.47;5066636;28;20070;-70
2022/07/01 11:03:21;;;;;;;4.93;1.30;;;;;;;23.25;48.01;101724.22;5079526;28;20040;-70
2022/07/01 11:05:48;;;;;;;3.17;1.13;;;;;;;23.83;49.19;101714.84;5083528;28;20475;-70
2022/07/01 11:08:14;;;;;;;2.28;0.88;;;;;;;23.86;44.68;101714.47;5067379;28;20140;-70
2022/07/01 11:10:40;;;;;;;2.95;0.77;;;;;;;23.86;45.40;101703.34;5067197;28;20053;-70
2022/07/01 11:13:06;;;;;;;3.15;0.95;;;;;;;24.07;44.97;101704.69;5065989;28;20044;-70
2022/07/01 11:15:31;;;;;;;2.20;0.90;;;;;;;24.08;46.36;101706.44;5065574;28;20509;-70
2022/07/01 11:17:58;;;;;;;2.88;1.08;;;;;;;24.43;45.98;101705.09;5066669;28;20033;-70
2022/07/01 11:20:26;;;;;;;5.22;1.33;;;;;;;24.61;42.79;101708.47;5067245;28;20024;-70
2022/07/01 11:22:52;;;;;;;3.58;1.00;;;;;;;24.79;43.63;101691.50;5067315;28;20040;-70